Time;durP1;ratioP1;P1;durP2;ratioP2;P2;SDS_P1;SDS_P2;PMS_P1;PMS_P2;Temp;Humidity;BMP_temperature;BMP_pressure;BME280_temperature;BME280_humidity;BME280_pressure;Samples;Min_cycle;Max_cycle;Signal;HPM_P1;HPM_P2
2023/09/30 00:00:57;;;;;;;14.10;3.65;;;;;;;;;;5075814;28;20179;-57
2023/09/30 00:03:23;;;;;;;12.23;4.28;;;;;;;;;;5075510;28;20381;-58
2023/09/30 00:05:50;;;;;;;11.70;3.85;;;;;;;;;;5073385;28;20364;-58
2023/09/30 00:08:16;;;;;;;10.18;3.70;;;;;;;;;;5070137;28;20046;-58
2023/09/30 00:10:42;;;;;;;18.40;3.78;;;;;;;;;;5084319;28;20112;-58
2023/09/30 00:13:08;;;;;;;11.00;3.33;;;;;;;;;;5092357;28;20059;-57
2023/09/30 00:15:35;;;;;;;10.82;3.50;;;;;;;;;;5080707;28;20032;-58
2023/09/30 00:18:01;;;;;;;13.27;3.70;;;;;;;;;;5087107;28;20119;-58
2023/09/30 00:20:30;;;;;;;11.13;4.07;;;;;;;;;;5074987;28;20048;-58
2023/09/30 00:22:56;;;;;;;15.57;4.18;;;;;;;;;;5074309;28;20028;-58
2023/09/30 00:25:22;;;;;;;12.88;4.65;;;;;;;;;;5084778;28;20456;-57
2023/09/30 00:27:49;;;;;;;12.77;3.88;;;;;;;;;;5068906;28;20056;-57
2023/09/30 00:30:15;;;;;;;20.88;3.80;;;;;;;;;;5075994;28;20048;-57
2023/09/30 00:32:41;;;;;;;11.90;3.55;;;;;;;;;;5076265;28;20134;-58
2023/09/30 00:35:11;;;;;;;11.77;3.55;;;;;;;;;;5075750;28;20081;-58
2023/09/30 00:37:43;;;;;;;16.48;3.80;;;;;;;;;;5076194;28;20036;-57
2023/09/30 00:40:11;;;;;;;19.73;3.78;;;;;;;;;;5077421;28;20131;-58
2023/09/30 00:42:41;;;;;;;10.60;3.25;;;;;;;;;;5077064;28;20048;-58
2023/09/30 00:45:12;;;;;;;12.65;4.00;;;;;;;;;;5077817;28;20116;-57
2023/09/30 00:47:38;;;;;;;11.73;4.00;;;;;;;;;;5071735;28;20044;-57
2023/09/30 00:50:07;;;;;;;16.35;4.78;;;;;;;;;;5088288;28;20127;-58
2023/09/30 00:52:34;;;;;;;12.95;3.60;;;;;;;;;;5077438;28;20047;-58
2023/09/30 00:55:02;;;;;;;16.45;3.72;;;;;;;;;;5074597;28;20049;-58
2023/09/30 00:57:30;;;;;;;12.57;4.05;;;;;;;;;;5068003;28;20776;-58
2023/09/30 00:59:57;;;;;;;16.45;3.83;;;;;;;;;;5071810;28;20434;-58
2023/09/30 01:02:23;;;;;;;18.90;3.80;;;;;;;;;;5076985;28;20056;-58
2023/09/30 01:04:50;;;;;;;10.32;3.05;;;;;;;;;;5075121;28;20071;-58
2023/09/30 01:07:17;;;;;;;13.35;3.42;;;;;;;;;;5072351;28;20045;-58
2023/09/30 01:09:43;;;;;;;20.42;3.25;;;;;;;;;;5080016;28;20089;-58
2023/09/30 01:12:09;;;;;;;16.25;3.58;;;;;;;;;;5071420;28;20411;-58
2023/09/30 01:14:40;;;;;;;19.23;4.70;;;;;;;;;;5074443;28;20101;-57
2023/09/30 01:17:09;;;;;;;15.27;3.83;;;;;;;;;;5072528;28;20050;-58
2023/09/30 01:19:36;;;;;;;14.45;5.07;;;;;;;;;;5077288;28;20044;-58
2023/09/30 01:22:05;;;;;;;21.15;4.00;;;;;;;;;;5071389;28;20036;-58
2023/09/30 01:24:32;;;;;;;16.38;3.88;;;;;;;;;;5076615;28;20044;-57
2023/09/30 01:26:58;;;;;;;11.65;3.55;;;;;;;;;;5074909;28;20105;-57
2023/09/30 01:29:26;;;;;;;15.48;3.90;;;;;;;;;;5071647;28;20060;-58
2023/09/30 01:31:53;;;;;;;13.82;3.47;;;;;;;;;;5082486;28;20044;-57
2023/09/30 01:34:19;;;;;;;11.00;3.50;;;;;;;;;;5077763;28;20097;-58
2023/09/30 01:36:46;;;;;;;17.05;4.18;;;;;;;;;;5064749;28;20117;-58
2023/09/30 01:39:13;;;;;;;15.90;3.75;;;;;;;;;;5073682;28;20070;-58
2023/09/30 01:41:40;;;;;;;13.38;3.60;;;;;;;;;;5078002;28;20085;-58
2023/09/30 01:44:06;;;;;;;10.95;3.78;;;;;;;;;;5071029;28;20032;-58
2023/09/30 01:46:32;;;;;;;12.05;3.95;;;;;;;;;;5073903;28;20071;-58
2023/09/30 01:48:59;;;;;;;15.93;3.28;;;;;;;;;;5077095;28;20044;-58
2023/09/30 01:51:25;;;;;;;15.40;3.88;;;;;;;;;;5077003;28;20484;-58
2023/09/30 01:53:51;;;;;;;14.60;3.50;;;;;;;;;;5073791;28;20032;-58
2023/09/30 01:56:18;;;;;;;9.35;3.80;;;;;;;;;;5073293;28;20054;-57
2023/09/30 01:58:44;;;;;;;17.83;4.13;;;;;;;;;;5072640;28;20193;-58
2023/09/30 02:01:10;;;;;;;13.48;4.05;;;;;;;;;;5068659;28;20048;-58
2023/09/30 02:03:37;;;;;;;8.88;3.55;;;;;;;;;;5074673;28;20055;-58
2023/09/30 02:06:03;;;;;;;14.25;3.97;;;;;;;;;;5075129;28;20445;-58
2023/09/30 02:08:29;;;;;;;10.70;3.50;;;;;;;;;;5075934;28;20122;-58
2023/09/30 02:10:56;;;;;;;14.65;4.07;;;;;;;;;;5073143;28;20044;-58
2023/09/30 02:13:22;;;;;;;8.85;3.72;;;;;;;;;;5073627;28;20388;-58
2023/09/30 02:15:48;;;;;;;10.52;3.47;;;;;;;;;;5070758;28;20045;-58
2023/09/30 02:18:14;;;;;;;12.88;3.53;;;;;;;;;;5071873;28;20042;-58
2023/09/30 02:20:40;;;;;;;15.07;5.10;;;;;;;;;;5072351;28;20127;-57
2023/09/30 02:23:13;;;;;;;13.18;4.05;;;;;;;;;;5076082;28;20288;-58
2023/09/30 02:25:43;;;;;;;14.80;4.13;;;;;;;;;;5073587;28;20074;-58
2023/09/30 02:28:09;;;;;;;17.42;4.72;;;;;;;;;;5076014;28;20053;-58
2023/09/30 02:30:35;;;;;;;15.15;4.35;;;;;;;;;;5079769;28;20059;-58
2023/09/30 02:33:02;;;;;;;12.23;3.97;;;;;;;;;;5090129;28;20043;-58
2023/09/30 02:35:28;;;;;;;11.20;3.80;;;;;;;;;;5080361;28;20420;-58
2023/09/30 02:37:55;;;;;;;14.60;3.97;;;;;;;;;;5072031;28;20126;-58
2023/09/30 02:40:24;;;;;;;13.93;3.88;;;;;;;;;;5074480;28;20258;-58
2023/09/30 02:42:51;;;;;;;18.98;4.78;;;;;;;;;;5073487;28;20392;-57
2023/09/30 02:45:17;;;;;;;11.95;4.22;;;;;;;;;;5071413;28;20049;-58
2023/09/30 02:47:44;;;;;;;14.27;4.40;;;;;;;;;;5070679;28;20103;-58
2023/09/30 02:50:11;;;;;;;11.98;4.03;;;;;;;;;;5073838;28;20040;-58
2023/09/30 02:52:40;;;;;;;15.88;4.03;;;;;;;;;;5071853;28;20043;-58
2023/09/30 02:55:07;;;;;;;12.50;3.85;;;;;;;;;;5072963;28;20048;-58
2023/09/30 02:57:35;;;;;;;12.43;3.55;;;;;;;;;;5076640;28;20544;-58
2023/09/30 03:00:11;;;;;;;12.32;4.63;;;;;;;;;;5074361;28;20048;-58
2023/09/30 03:02:38;;;;;;;8.38;3.42;;;;;;;;;;5072519;28;20052;-57
2023/09/30 03:05:04;;;;;;;11.80;4.25;;;;;;;;;;5071217;28;20044;-58
2023/09/30 03:07:33;;;;;;;21.33;4.85;;;;;;;;;;5087707;28;20048;-58
2023/09/30 03:10:05;;;;;;;15.23;3.78;;;;;;;;;;5080915;28;20129;-58
2023/09/30 03:12:32;;;;;;;12.43;4.25;;;;;;;;;;5078563;28;20039;-58
2023/09/30 03:14:58;;;;;;;13.75;3.70;;;;;;;;;;5075467;28;20051;-58
2023/09/30 03:17:25;;;;;;;14.90;4.05;;;;;;;;;;5077281;28;20097;-58
2023/09/30 03:19:52;;;;;;;14.10;4.43;;;;;;;;;;5077856;28;20161;-58
2023/09/30 03:22:19;;;;;;;17.23;4.40;;;;;;;;;;5077312;28;20608;-58
2023/09/30 03:24:45;;;;;;;14.52;4.70;;;;;;;;;;5076141;28;20040;-58
2023/09/30 03:27:11;;;;;;;13.27;4.75;;;;;;;;;;5069071;28;20508;-58
2023/09/30 03:29:40;;;;;;;13.57;4.38;;;;;;;;;;5075648;28;20048;-58
2023/09/30 03:32:07;;;;;;;14.13;4.30;;;;;;;;;;5076020;28;20132;-58
2023/09/30 03:34:36;;;;;;;12.35;3.95;;;;;;;;;;5076741;28;20086;-58
2023/09/30 03:37:03;;;;;;;10.05;4.18;;;;;;;;;;5072835;28;21866;-58
2023/09/30 03:39:29;;;;;;;11.93;3.75;;;;;;;;;;5079793;28;20361;-58
2023/09/30 03:41:56;;;;;;;13.35;3.45;;;;;;;;;;5074664;28;20058;-58
2023/09/30 03:44:23;;;;;;;13.82;4.10;;;;;;;;;;5074887;28;20040;-58
2023/09/30 03:46:49;;;;;;;16.80;4.25;;;;;;;;;;5074116;28;20067;-58
2023/09/30 03:49:16;;;;;;;16.25;4.57;;;;;;;;;;5079923;28;20032;-58
2023/09/30 03:51:42;;;;;;;11.95;3.58;;;;;;;;;;5080718;28;20481;-58
2023/09/30 03:54:08;;;;;;;17.17;3.92;;;;;;;;;;5068991;28;20036;-58
2023/09/30 03:56:35;;;;;;;11.05;3.42;;;;;;;;;;5080603;28;20056;-57
2023/09/30 03:59:01;;;;;;;9.05;3.47;;;;;;;;;;5089090;28;20097;-58
2023/09/30 04:01:27;;;;;;;12.13;3.53;;;;;;;;;;5083798;28;20511;-58
2023/09/30 04:03:55;;;;;;;17.58;3.45;;;;;;;;;;5083625;28;20496;-58
2023/09/30 04:06:21;;;;;;;15.75;4.40;;;;;;;;;;5079933;28;20491;-58
2023/09/30 04:08:48;;;;;;;9.05;3.25;;;;;;;;;;5075485;28;20044;-58
2023/09/30 04:11:18;;;;;;;14.60;4.57;;;;;;;;;;5077365;28;20552;-58
2023/09/30 04:13:47;;;;;;;16.23;3.85;;;;;;;;;;5084401;28;20115;-58
2023/09/30 04:16:13;;;;;;;13.07;3.67;;;;;;;;;;5072932;28;20044;-58
2023/09/30 04:18:40;;;;;;;12.73;3.45;;;;;;;;;;5077364;28;20032;-57
2023/09/30 04:21:07;;;;;;;12.77;4.03;;;;;;;;;;5082405;28;20051;-58
2023/09/30 04:23:36;;;;;;;11.52;3.78;;;;;;;;;;5072473;28;20445;-58
2023/09/30 04:26:03;;;;;;;14.75;3.72;;;;;;;;;;5081354;28;20041;-58
2023/09/30 04:28:30;;;;;;;13.13;4.43;;;;;;;;;;5076012;28;20378;-58
2023/09/30 04:30:58;;;;;;;8.88;3.55;;;;;;;;;;5080589;28;20456;-58
2023/09/30 04:33:27;;;;;;;15.43;3.60;;;;;;;;;;5085964;28;20071;-58
2023/09/30 04:35:53;;;;;;;14.60;3.90;;;;;;;;;;5076280;28;20044;-58
2023/09/30 04:38:19;;;;;;;14.00;4.45;;;;;;;;;;5078914;28;20068;-58
2023/09/30 04:40:48;;;;;;;16.67;4.15;;;;;;;;;;5082513;28;20043;-58
2023/09/30 04:43:14;;;;;;;11.55;3.20;;;;;;;;;;5084946;28;20427;-58
2023/09/30 04:45:40;;;;;;;10.27;3.15;;;;;;;;;;5069658;28;20045;-58
2023/09/30 04:48:06;;;;;;;9.48;3.30;;;;;;;;;;5069713;28;20455;-57
2023/09/30 04:50:33;;;;;;;13.23;3.67;;;;;;;;;;5085686;28;20036;-58
2023/09/30 04:52:59;;;;;;;12.35;3.13;;;;;;;;;;5079504;28;20476;-58
2023/09/30 04:55:26;;;;;;;13.82;2.95;;;;;;;;;;5069147;28;20377;-58
2023/09/30 04:57:52;;;;;;;9.98;3.08;;;;;;;;;;5079555;28;20035;-58
2023/09/30 05:00:25;;;;;;;13.30;3.70;;;;;;;;;;5091884;28;20040;-58
2023/09/30 05:02:52;;;;;;;13.02;3.25;;;;;;;;;;5080851;28;20107;-58
2023/09/30 05:05:19;;;;;;;11.93;3.10;;;;;;;;;;5070211;28;20048;-57
2023/09/30 05:07:47;;;;;;;13.77;3.10;;;;;;;;;;5065673;28;20052;-57
2023/09/30 05:10:15;;;;;;;8.70;2.72;;;;;;;;;;5084205;28;20116;-58
2023/09/30 05:12:45;;;;;;;11.52;3.30;;;;;;;;;;5082187;28;20132;-58
2023/09/30 05:15:13;;;;;;;9.63;2.90;;;;;;;;;;5083119;28;20058;-58
2023/09/30 05:17:39;;;;;;;10.23;2.95;;;;;;;;;;5079941;28;20415;-59
2023/09/30 05:20:06;;;;;;;7.82;2.30;;;;;;;;;;5083244;28;20041;-59
2023/09/30 05:22:33;;;;;;;11.65;3.47;;;;;;;;;;5073665;28;20044;-59
2023/09/30 05:25:00;;;;;;;9.57;3.13;;;;;;;;;;5070693;28;20108;-59
2023/09/30 05:27:27;;;;;;;10.23;2.60;;;;;;;;;;5071039;28;20060;-59
2023/09/30 05:29:55;;;;;;;9.73;2.90;;;;;;;;;;5065362;28;20086;-59
2023/09/30 05:32:22;;;;;;;12.63;3.15;;;;;;;;;;5070551;28;20171;-59
2023/09/30 05:34:48;;;;;;;6.05;2.65;;;;;;;;;;5070491;28;20113;-59
2023/09/30 05:37:15;;;;;;;10.20;2.60;;;;;;;;;;5070453;28;20044;-59
2023/09/30 05:39:41;;;;;;;6.55;2.63;;;;;;;;;;5071023;28;20037;-59
2023/09/30 05:42:07;;;;;;;9.65;2.58;;;;;;;;;;5070121;28;20048;-58
2023/09/30 05:44:33;;;;;;;11.98;3.55;;;;;;;;;;5067518;28;20059;-59
2023/09/30 05:47:00;;;;;;;9.07;3.65;;;;;;;;;;5070597;28;20040;-59
2023/09/30 05:49:26;;;;;;;8.30;2.90;;;;;;;;;;5070264;28;20036;-59
2023/09/30 05:51:53;;;;;;;10.27;3.33;;;;;;;;;;5070669;28;20460;-59
2023/09/30 05:54:19;;;;;;;10.82;3.67;;;;;;;;;;5071090;28;20040;-59
2023/09/30 05:56:46;;;;;;;12.40;3.45;;;;;;;;;;5067679;28;20127;-58
2023/09/30 05:59:13;;;;;;;8.93;3.00;;;;;;;;;;5076731;28;20044;-59
2023/09/30 06:01:39;;;;;;;9.27;3.20;;;;;;;;;;5088363;28;20098;-59
2023/09/30 06:04:06;;;;;;;9.68;2.85;;;;;;;;;;5079637;28;20451;-59
2023/09/30 06:06:33;;;;;;;10.13;2.78;;;;;;;;;;5079711;28;20047;-59
2023/09/30 06:08:59;;;;;;;8.63;2.53;;;;;;;;;;5083710;28;20029;-59
2023/09/30 06:11:28;;;;;;;9.20;3.45;;;;;;;;;;5064521;28;20053;-59
2023/09/30 06:14:06;;;;;;;6.80;2.47;;;;;;;;;;5067481;28;20055;-59
2023/09/30 06:16:32;;;;;;;6.85;2.22;;;;;;;;;;5065688;28;20420;-59
2023/09/30 06:18:58;;;;;;;39.35;2.63;;;;;;;;;;5061403;28;20036;-59
2023/09/30 06:21:28;;;;;;;5.10;2.00;;;;;;;;;;5066201;28;20033;-59
2023/09/30 06:23:55;;;;;;;13.93;3.67;;;;;;;;;;5067922;28;20085;-60
2023/09/30 06:26:21;;;;;;;10.07;3.67;;;;;;;;;;5069192;28;20119;-59
2023/09/30 06:28:48;;;;;;;10.98;3.22;;;;;;;;;;5070008;28;20052;-59
2023/09/30 06:31:15;;;;;;;8.02;2.83;;;;;;;;;;5070479;28;20051;-59
2023/09/30 06:33:41;;;;;;;8.90;3.40;;;;;;;;;;5069542;28;20086;-59
2023/09/30 06:36:15;;;;;;;9.85;3.20;;;;;;;;;;5069644;28;20044;-59
2023/09/30 06:38:44;;;;;;;8.88;3.03;;;;;;;;;;5069988;28;20488;-59
2023/09/30 06:41:16;;;;;;;12.52;3.22;;;;;;;;;;5069014;28;20427;-59
2023/09/30 06:43:43;;;;;;;8.98;3.35;;;;;;;;;;5070933;28;20040;-59
2023/09/30 06:46:09;;;;;;;12.77;3.35;;;;;;;;;;5068002;28;20076;-59
2023/09/30 06:48:36;;;;;;;16.17;3.95;;;;;;;;;;5069226;28;20032;-59
2023/09/30 06:51:02;;;;;;;11.68;3.38;;;;;;;;;;5069260;28;20434;-59
2023/09/30 06:53:28;;;;;;;10.02;3.80;;;;;;;;;;5068621;28;20040;-59
2023/09/30 06:55:56;;;;;;;13.68;3.70;;;;;;;;;;5069461;28;20039;-59
2023/09/30 06:58:22;;;;;;;19.33;4.90;;;;;;;;;;5082616;28;20066;-59
2023/09/30 07:00:53;;;;;;;13.23;3.97;;;;;;;;;;5074319;28;20080;-59
2023/09/30 07:03:19;;;;;;;14.60;4.13;;;;;;;;;;5090827;28;20038;-59
2023/09/30 07:05:49;;;;;;;12.93;3.85;;;;;;;;;;5083114;28;20055;-59
2023/09/30 07:08:15;;;;;;;10.50;3.90;;;;;;;;;;5066537;28;20120;-59
2023/09/30 07:10:42;;;;;;;12.10;4.15;;;;;;;;;;5077919;28;20400;-59
2023/09/30 07:13:09;;;;;;;14.10;4.47;;;;;;;;;;5082628;28;20045;-59
2023/09/30 07:15:35;;;;;;;11.40;4.88;;;;;;;;;;5078652;28;20128;-59
2023/09/30 07:18:02;;;;;;;13.77;5.20;;;;;;;;;;5076293;28;20047;-59
2023/09/30 07:20:32;;;;;;;13.52;4.97;;;;;;;;;;5085807;28;20400;-59
2023/09/30 07:22:59;;;;;;;13.00;5.03;;;;;;;;;;5085246;28;20054;-59
2023/09/30 07:25:25;;;;;;;12.63;5.22;;;;;;;;;;5068860;28;20066;-59
2023/09/30 07:27:52;;;;;;;12.50;5.35;;;;;;;;;;5086953;28;20067;-59
2023/09/30 07:30:18;;;;;;;11.77;5.50;;;;;;;;;;5073558;28;20060;-59
2023/09/30 07:32:45;;;;;;;18.48;5.65;;;;;;;;;;5083903;28;20087;-59
2023/09/30 07:35:14;;;;;;;11.82;5.53;;;;;;;;;;5090130;28;20066;-59
2023/09/30 07:37:41;;;;;;;12.93;5.40;;;;;;;;;;5090424;28;20058;-59
2023/09/30 07:40:07;;;;;;;18.63;6.53;;;;;;;;;;5069450;28;20084;-59
2023/09/30 07:42:34;;;;;;;18.65;5.93;;;;;;;;;;5069318;28;20047;-58
2023/09/30 07:45:01;;;;;;;17.48;6.32;;;;;;;;;;5088041;28;20059;-58
2023/09/30 07:47:27;;;;;;;14.65;5.70;;;;;;;;;;5090341;28;20471;-58
2023/09/30 07:49:53;;;;;;;16.23;5.78;;;;;;;;;;5089275;28;20066;-58
2023/09/30 07:52:19;;;;;;;17.50;5.90;;;;;;;;;;5090280;28;20044;-58
2023/09/30 07:54:46;;;;;;;18.15;5.55;;;;;;;;;;5085667;28;20541;-58
2023/09/30 07:57:12;;;;;;;13.55;5.40;;;;;;;;;;5091702;28;20040;-58
2023/09/30 07:59:38;;;;;;;18.02;6.10;;;;;;;;;;5094132;28;20446;-58
2023/09/30 08:02:04;;;;;;;19.02;5.05;;;;;;;;;;5078594;28;20065;-58
2023/09/30 08:04:31;;;;;;;16.58;5.40;;;;;;;;;;5093084;28;20107;-58
2023/09/30 08:06:58;;;;;;;14.95;5.60;;;;;;;;;;5081243;28;20063;-58
2023/09/30 08:09:24;;;;;;;17.98;5.90;;;;;;;;;;5077410;28;20032;-58
2023/09/30 08:11:53;;;;;;;14.82;4.82;;;;;;;;;;5083661;28;20044;-58
2023/09/30 08:14:20;;;;;;;18.88;5.07;;;;;;;;;;5093704;28;20404;-58
2023/09/30 08:16:46;;;;;;;15.57;5.38;;;;;;;;;;5084071;28;20499;-58
2023/09/30 08:19:12;;;;;;;16.10;6.10;;;;;;;;;;5072577;28;20044;-58
2023/09/30 08:21:38;;;;;;;18.52;5.75;;;;;;;;;;5073519;28;20048;-58
2023/09/30 08:24:04;;;;;;;15.63;4.35;;;;;;;;;;5072111;28;20047;-58
2023/09/30 08:26:31;;;;;;;13.85;5.57;;;;;;;;;;5072506;28;20131;-58
2023/09/30 08:28:57;;;;;;;17.90;4.95;;;;;;;;;;5072935;28;20056;-58
2023/09/30 08:31:24;;;;;;;18.63;5.03;;;;;;;;;;5071222;28;20040;-58
2023/09/30 08:33:50;;;;;;;13.40;4.50;;;;;;;;;;5071903;28;20041;-58
2023/09/30 08:36:16;;;;;;;10.98;3.80;;;;;;;;;;5073133;28;20080;-58
2023/09/30 08:38:43;;;;;;;13.65;3.80;;;;;;;;;;5071836;28;20506;-58
2023/09/30 08:41:10;;;;;;;15.13;4.00;;;;;;;;;;5072168;28;20041;-58
2023/09/30 08:43:40;;;;;;;18.05;5.07;;;;;;;;;;5073008;28;20044;-58
2023/09/30 08:46:07;;;;;;;12.43;4.65;;;;;;;;;;5070921;28;20052;-58
2023/09/30 08:48:34;;;;;;;11.80;3.67;;;;;;;;;;5071397;28;20523;-58
2023/09/30 08:51:01;;;;;;;21.00;3.85;;;;;;;;;;5072902;28;20037;-58
2023/09/30 08:53:29;;;;;;;18.42;3.70;;;;;;;;;;5071923;28;20072;-58
2023/09/30 08:55:55;;;;;;;12.63;3.40;;;;;;;;;;5072816;28;20051;-58
2023/09/30 08:58:28;;;;;;;17.42;3.90;;;;;;;;;;5083855;28;20048;-58
2023/09/30 09:00:54;;;;;;;16.15;3.05;;;;;;;;;;5073696;28;20048;-58
2023/09/30 09:03:20;;;;;;;13.98;3.22;;;;;;;;;;5082519;28;20400;-58
2023/09/30 09:05:56;;;;;;;12.98;3.50;;;;;;;;;;5089950;28;20046;-58
2023/09/30 09:08:23;;;;;;;17.70;3.30;;;;;;;;;;5081280;28;20090;-58
2023/09/30 09:11:02;;;;;;;12.98;2.70;;;;;;;;;;5089508;28;20123;-58
2023/09/30 09:13:29;;;;;;;16.23;2.63;;;;;;;;;;5082776;28;20492;-58
2023/09/30 09:16:08;;;;;;;9.10;2.03;;;;;;;;;;5090387;28;20088;-58
2023/09/30 09:18:38;;;;;;;13.23;2.03;;;;;;;;;;5092604;28;20099;-58
2023/09/30 09:21:11;;;;;;;15.57;2.35;;;;;;;;;;5091575;28;20962;-58
2023/09/30 09:23:41;;;;;;;11.70;2.10;;;;;;;;;;5092517;28;20118;-58
2023/09/30 09:26:07;;;;;;;10.68;2.53;;;;;;;;;;5088043;28;20044;-58
2023/09/30 09:28:39;;;;;;;15.38;2.67;;;;;;;;;;5088345;28;20389;-58
2023/09/30 09:31:31;;;;;;;9.00;1.90;;;;;;;;;;5083701;28;20234;-58
2023/09/30 09:33:58;;;;;;;15.20;2.22;;;;;;;;;;5081093;28;20056;-58
2023/09/30 09:36:38;;;;;;;8.98;1.88;;;;;;;;;;5091117;28;20043;-58
2023/09/30 09:39:05;;;;;;;11.60;2.03;;;;;;;;;;5092245;28;20127;-58
2023/09/30 09:41:31;;;;;;;13.13;2.22;;;;;;;;;;5083792;28;20082;-58
2023/09/30 09:43:59;;;;;;;9.85;1.77;;;;;;;;;;5075125;28;20045;-58
2023/09/30 09:46:25;;;;;;;11.70;2.72;;;;;;;;;;5073159;28;20040;-58
2023/09/30 09:48:53;;;;;;;14.50;2.20;;;;;;;;;;5083077;28;20048;-58
2023/09/30 09:51:20;;;;;;;12.68;2.10;;;;;;;;;;5091893;28;20503;-58
2023/09/30 09:53:48;;;;;;;13.50;1.73;;;;;;;;;;5063493;28;20076;-58
2023/09/30 09:56:14;;;;;;;14.35;2.28;;;;;;;;;;5077778;28;20056;-58
2023/09/30 09:58:42;;;;;;;14.38;2.10;;;;;;;;;;5075438;28;20044;-58
2023/09/30 10:01:09;;;;;;;10.60;1.95;;;;;;;;;;5091842;28;20063;-58
2023/09/30 10:03:36;;;;;;;12.32;2.10;;;;;;;;;;5091023;28;20117;-58
2023/09/30 10:06:02;;;;;;;8.98;1.45;;;;;;;;;;5091514;28;20130;-58
2023/09/30 10:08:33;;;;;;;14.68;2.00;;;;;;;;;;5091688;28;20158;-58
2023/09/30 10:11:00;;;;;;;10.77;2.17;;;;;;;;;;5082189;28;20037;-58
2023/09/30 10:13:45;;;;;;;11.07;1.67;;;;;;;;;;5085480;28;20048;-58
2023/09/30 10:16:31;;;;;;;8.85;1.73;;;;;;;;;;5080473;28;20111;-58
2023/09/30 10:19:17;;;;;;;9.10;1.90;;;;;;;;;;5090338;28;20051;-58
2023/09/30 10:22:02;;;;;;;12.02;2.47;;;;;;;;;;5067481;28;20118;-58
2023/09/30 10:24:29;;;;;;;9.13;2.38;;;;;;;;;;5090501;28;20070;-58
2023/09/30 10:27:15;;;;;;;6.40;2.05;;;;;;;;;;5083087;28;20044;-58
2023/09/30 10:29:42;;;;;;;6.63;1.58;;;;;;;;;;5089066;28;20165;-58
2023/09/30 10:32:09;;;;;;;10.43;2.10;;;;;;;;;;5090360;28;20094;-58
2023/09/30 10:34:35;;;;;;;11.80;1.92;;;;;;;;;;5091110;28;20033;-58
2023/09/30 10:37:20;;;;;;;9.80;2.20;;;;;;;;;;5091010;28;20487;-58
2023/09/30 10:39:55;;;;;;;11.15;2.45;;;;;;;;;;5087839;28;20459;-58
2023/09/30 10:42:45;;;;;;;8.98;2.08;;;;;;;;;;5080997;28;20062;-58
2023/09/30 10:45:48;;;;;;;8.13;1.85;;;;;;;;;;5080035;28;20400;-58
2023/09/30 10:48:26;;;;;;;7.65;1.55;;;;;;;;;;5061199;28;20555;-58
2023/09/30 10:50:58;;;;;;;11.13;2.20;;;;;;;;;;5077892;28;20064;-58
2023/09/30 10:53:27;;;;;;;9.50;1.77;;;;;;;;;;5085559;28;20052;-58
2023/09/30 10:56:00;;;;;;;9.43;1.63;;;;;;;;;;5085321;28;20051;-58
2023/09/30 10:58:26;;;;;;;;;;;;;;;;;;5091245;28;20450;-59
2023/09/30 11:00:55;;;;;;;12.70;2.00;;;;;;;;;;5089881;28;19961;-58
2023/09/30 11:03:22;;;;;;;8.13;2.47;;;;;;;;;;5090626;28;20044;-59
2023/09/30 11:05:54;;;;;;;12.73;1.70;;;;;;;;;;5090525;28;20515;-58
2023/09/30 11:08:25;;;;;;;8.80;1.73;;;;;;;;;;5090149;28;20036;-58
2023/09/30 11:10:52;;;;;;;8.52;1.80;;;;;;;;;;5077666;28;20041;-58
2023/09/30 11:13:18;;;;;;;8.25;1.58;;;;;;;;;;5089774;28;20079;-59
2023/09/30 11:15:45;;;;;;;9.48;1.80;;;;;;;;;;5076077;28;20032;-59
2023/09/30 11:18:18;;;;;;;11.60;2.05;;;;;;;;;;5080999;28;20438;-59
2023/09/30 11:20:45;;;;;;;7.70;1.70;;;;;;;;;;5089712;28;20580;-59
2023/09/30 11:23:12;;;;;;;9.85;2.03;;;;;;;;;;5090393;28;20055;-59
2023/09/30 11:25:39;;;;;;;8.07;1.88;;;;;;;;;;5087526;28;20040;-59
2023/09/30 11:28:18;;;;;;;9.23;1.80;;;;;;;;;;5089409;28;20044;-59
2023/09/30 11:30:58;;;;;;;10.65;1.88;;;;;;;;;;5090324;28;20044;-59
2023/09/30 11:33:25;;;;;;;7.38;1.63;;;;;;;;;;5066847;28;20073;-59
2023/09/30 11:36:06;;;;;;;10.95;1.67;;;;;;;;;;5093566;28;20605;-59
2023/09/30 11:38:33;;;;;;;7.22;1.83;;;;;;;;;;5067570;28;20107;-59
2023/09/30 11:41:06;;;;;;;7.85;1.92;;;;;;;;;;5082088;28;20126;-59
2023/09/30 11:43:34;;;;;;;10.77;1.98;;;;;;;;;;5093485;28;20047;-59
2023/09/30 11:46:08;;;;;;;7.82;2.00;;;;;;;;;;5081069;28;20183;-59
2023/09/30 11:48:35;;;;;;;7.07;1.52;;;;;;;;;;5092503;28;20062;-59
2023/09/30 11:51:03;;;;;;;8.73;1.83;;;;;;;;;;5094224;28;20040;-59
2023/09/30 11:53:33;;;;;;;6.80;1.48;;;;;;;;;;5092265;28;20110;-59
2023/09/30 11:56:02;;;;;;;7.90;1.50;;;;;;;;;;5083417;28;20044;-59
2023/09/30 11:58:28;;;;;;;7.88;2.15;;;;;;;;;;5093849;28;20113;-59
2023/09/30 12:00:57;;;;;;;6.15;1.60;;;;;;;;;;5093942;28;20036;-59
2023/09/30 12:03:24;;;;;;;7.60;1.48;;;;;;;;;;5088576;28;20044;-59
2023/09/30 12:05:50;;;;;;;8.05;1.88;;;;;;;;;;5094336;28;20514;-59
2023/09/30 12:08:17;;;;;;;5.78;1.80;;;;;;;;;;5091030;28;20115;-59
2023/09/30 12:10:43;;;;;;;6.30;1.70;;;;;;;;;;5088349;28;20127;-59
2023/09/30 12:13:11;;;;;;;7.22;1.65;;;;;;;;;;5093820;28;20459;-59
2023/09/30 12:15:38;;;;;;;7.60;1.77;;;;;;;;;;5086631;28;20048;-59
2023/09/30 12:18:05;;;;;;;7.05;1.77;;;;;;;;;;5078463;28;20044;-59
2023/09/30 12:20:31;;;;;;;6.13;1.45;;;;;;;;;;5093534;28;20467;-58
2023/09/30 12:22:57;;;;;;;6.68;1.50;;;;;;;;;;5091767;28;20042;-59
2023/09/30 12:25:25;;;;;;;7.90;1.80;;;;;;;;;;5076875;28;20041;-59
2023/09/30 12:27:54;;;;;;;9.10;2.28;;;;;;;;;;5080091;28;20052;-59
2023/09/30 12:30:21;;;;;;;7.78;1.98;;;;;;;;;;5093474;28;20530;-58
2023/09/30 12:32:47;;;;;;;8.48;1.45;;;;;;;;;;5092164;28;20046;-58
2023/09/30 12:35:13;;;;;;;7.97;2.33;;;;;;;;;;5093070;28;20055;-59
2023/09/30 12:37:39;;;;;;;9.63;1.85;;;;;;;;;;5092712;28;20171;-59
2023/09/30 12:40:07;;;;;;;6.88;1.70;;;;;;;;;;5088903;28;20116;-58
2023/09/30 12:42:35;;;;;;;5.82;1.60;;;;;;;;;;5090769;28;20468;-58
2023/09/30 12:45:01;;;;;;;7.45;1.83;;;;;;;;;;5092106;28;20070;-59
2023/09/30 12:47:27;;;;;;;11.13;2.88;;;;;;;;;;5077897;28;20052;-58
2023/09/30 12:49:57;;;;;;;10.05;2.15;;;;;;;;;;5093073;28;20052;-59
2023/09/30 12:52:24;;;;;;;7.15;1.75;;;;;;;;;;5092065;28;20102;-59
2023/09/30 12:54:50;;;;;;;10.48;1.90;;;;;;;;;;5080770;28;20075;-59
2023/09/30 12:57:17;;;;;;;6.80;1.65;;;;;;;;;;5086160;28;20136;-59
2023/09/30 12:59:49;;;;;;;6.68;1.77;;;;;;;;;;5084099;28;20119;-58
2023/09/30 13:02:16;;;;;;;6.93;2.00;;;;;;;;;;5092694;28;20048;-58
2023/09/30 13:04:45;;;;;;;6.88;1.33;;;;;;;;;;5092594;28;20119;-58
2023/09/30 13:07:11;;;;;;;7.22;1.80;;;;;;;;;;5091912;28;20467;-59
2023/09/30 13:09:38;;;;;;;7.85;2.08;;;;;;;;;;5090631;28;20111;-58
2023/09/30 13:12:05;;;;;;;7.38;2.03;;;;;;;;;;5092640;28;20052;-59
2023/09/30 13:14:31;;;;;;;8.50;2.67;;;;;;;;;;5091570;28;20109;-58
2023/09/30 13:16:57;;;;;;;11.60;2.38;;;;;;;;;;5088996;28;20402;-58
2023/09/30 13:19:24;;;;;;;8.98;2.17;;;;;;;;;;5092413;28;20072;-59
2023/09/30 13:21:52;;;;;;;10.00;1.80;;;;;;;;;;5091533;28;20054;-59
2023/09/30 13:24:19;;;;;;;10.88;1.85;;;;;;;;;;5085211;28;20403;-58
2023/09/30 13:26:46;;;;;;;7.57;1.75;;;;;;;;;;5092210;28;20043;-59
2023/09/30 13:29:12;;;;;;;8.88;3.08;;;;;;;;;;5091209;28;20082;-59
2023/09/30 13:31:39;;;;;;;15.95;2.85;;;;;;;;;;5092284;28;20052;-59
2023/09/30 13:34:06;;;;;;;8.65;1.90;;;;;;;;;;5091549;28;20135;-58
2023/09/30 13:36:33;;;;;;;7.70;1.50;;;;;;;;;;5078422;28;20120;-59
2023/09/30 13:38:59;;;;;;;10.20;1.98;;;;;;;;;;5088752;28;20060;-58
2023/09/30 13:41:26;;;;;;;7.70;2.17;;;;;;;;;;5091099;28;20104;-58
2023/09/30 13:43:52;;;;;;;11.35;1.92;;;;;;;;;;5091803;28;20125;-58
2023/09/30 13:46:18;;;;;;;12.05;1.90;;;;;;;;;;5089479;28;20044;-58
2023/09/30 13:48:45;;;;;;;11.73;2.03;;;;;;;;;;5086923;28;20059;-59
2023/09/30 13:51:11;;;;;;;9.15;1.83;;;;;;;;;;5082278;28;20056;-58
2023/09/30 13:53:37;;;;;;;10.40;2.28;;;;;;;;;;5085333;28;20044;-58
2023/09/30 13:56:03;;;;;;;9.00;1.58;;;;;;;;;;5062866;28;20434;-58
2023/09/30 13:58:30;;;;;;;8.40;2.03;;;;;;;;;;5091677;28;20055;-58
2023/09/30 14:00:57;;;;;;;5.75;1.55;;;;;;;;;;5091793;28;20039;-58
2023/09/30 14:03:26;;;;;;;12.60;2.53;;;;;;;;;;5090887;28;20067;-58
2023/09/30 14:05:56;;;;;;;7.15;1.65;;;;;;;;;;5082279;28;20044;-58
2023/09/30 14:08:24;;;;;;;11.13;1.63;;;;;;;;;;5091675;28;20040;-59
2023/09/30 14:10:51;;;;;;;8.48;1.33;;;;;;;;;;5089293;28;20048;-58
2023/09/30 14:13:18;;;;;;;7.80;1.77;;;;;;;;;;5082390;28;20076;-58
2023/09/30 14:15:46;;;;;;;10.40;1.90;;;;;;;;;;5083624;28;20092;-58
2023/09/30 14:18:13;;;;;;;5.45;1.77;;;;;;;;;;5090731;28;20067;-59
2023/09/30 14:20:39;;;;;;;7.05;1.65;;;;;;;;;;5077858;28;20044;-58
2023/09/30 14:23:05;;;;;;;9.00;1.70;;;;;;;;;;5081994;28;20043;-58
2023/09/30 14:25:32;;;;;;;10.02;1.63;;;;;;;;;;5089089;28;20051;-59
2023/09/30 14:27:59;;;;;;;11.38;2.90;;;;;;;;;;5090972;28;20112;-58
2023/09/30 14:30:26;;;;;;;7.63;1.50;;;;;;;;;;5090298;28;20111;-58
2023/09/30 14:32:54;;;;;;;10.85;1.90;;;;;;;;;;5090993;28;20119;-58
2023/09/30 14:35:21;;;;;;;7.72;1.88;;;;;;;;;;5086736;28;20075;-59
2023/09/30 14:37:47;;;;;;;7.32;2.22;;;;;;;;;;5090218;28;20448;-58